This demonstration page uses our WeatherBlox Daily Observations layout. Learn more.

Left ArrowRight Arrow

41.55636, -103.73856

Hourly Observations for February 5, 2016

Temp ( °F °C ) Dew Point ( °F °C ) Humidity (%) Winds ( mph kmh ) Pressure ( in mb ) Visibility ( mi km ) Precip ( " mm )
12:53 am 00:53 Mostly Cloudy 29 -1.7 19 -7.2 66 66 WNW 10 17 30.24 1024 10 16.0934 N/A
1:53 am 01:53 Cloudy 28 -2.2 18 -7.8 66 66 WNW 10 17 30.26 1025 10 16.0934 N/A
2:53 am 02:53 Partly Cloudy 26 -3.3 17 -8.3 69 69 WNW 8 13 30.29 1026 10 16.0934 N/A
3:53 am 03:53 Clear 25 -3.9 16 -8.9 69 69 WNW 12 19 30.3 1026 10 16.0934 N/A
4:53 am 04:53 Clear 16 -8.9 12 -11.1 84 84 NNW 5 7 30.35 1028 10 16.0934 N/A
5:53 am 05:53 Clear 18 -7.8 11 -11.7 74 74 NW 12 19 30.36 1028 10 16.0934 N/A
6:53 am 06:53 Clear 15 -9.4 9 -12.8 77 77 WNW 12 19 30.39 1029 10 16.0934 N/A
7:53 am 07:53 Sunny 15 -9.4 8 -13.3 74 74 NW 8 13 30.41 1030 10 16.0934 N/A
8:53 am 08:53 Mostly Cloudy 22 -5.6 12 -11.1 66 66 WNW 14 22 30.4 1030 10 16.0934 N/A
9:53 am 09:53 Sunny 26 -3.3 14 -10 60 60 WNW 10 17 30.4 1030 10 16.0934 N/A
10:53 am 10:53 Sunny 30 -1.1 16 -8.9 56 56 WNW 15 24 30.39 1029 10 16.0934 N/A
11:53 am 11:53 Sunny 32 undefined 18 -7.8 56 56 W 17 28 30.35 1028 10 16.0934 N/A
12:53 pm 12:53 Sunny 34 1.1 20 -6.7 56 56 WNW 17 28 30.34 1027 10 16.0934 N/A
1:53 pm 13:53 Sunny 34 1.1 19 -7.2 54 54 WNW 17 28 30.34 1028 10 16.0934 N/A
2:53 pm 14:53 Sunny 34 1.1 18 -7.8 52 52 WNW 16 26 30.35 1028 10 16.0934 N/A
3:53 pm 15:53 Sunny 32 undefined 19 -7.2 59 59 W 10 17 30.36 1028 10 16.0934 N/A
4:53 pm 16:53 Sunny 31 -0.6 17 -8.3 56 56 W 15 24 30.39 1029 10 16.0934 N/A
5:53 pm 17:53 Clear 28 -2.2 16 -8.9 60 60 W 12 19 30.4 1030 10 16.0934 N/A
6:53 pm 18:53 Clear 24 -4.4 14 -10 65 65 WNW 7 11 30.41 1030 10 16.0934 N/A
7:53 pm 19:53 Clear 16 -8.9 11 -11.7 80 80 NW 10 17 30.42 1030 10 16.0934 N/A
8:53 pm 20:53 Clear 16 -8.9 11 -11.7 80 80 NW 5 7 30.41 1030 10 16.0934 N/A
9:53 pm 21:53 Clear 15 -9.4 9 -12.8 77 77 N N/A 30.4 1029 10 16.0934 N/A
10:53 pm 22:53 Clear 13 -10.6 8 -13.3 81 81 N 6 9 30.37 1029 10 16.0934 N/A
11:53 pm 23:53 Clear 14 -10 9 -12.8 80 80 NNE 5 7 30.37 1028 10 16.0934 N/A

Powered by AerisWeather